Time;durP1;ratioP1;P1;durP2;ratioP2;P2;SDS_P1;SDS_P2;PMS_P1;PMS_P2;Temp;Humidity;BMP_temperature;BMP_pressure;BME280_temperature;BME280_humidity;BME280_pressure;Samples;Min_cycle;Max_cycle;Signal;HPM_P1;HPM_P2
2022/03/11 00:00:51;;;;;;;;;;;12.00;99.90;;;;;;6140560;23;19995;-87
2022/03/11 00:03:22;;;;;;;;;;;12.00;99.90;;;;;;6140693;23;19921;-89
2022/03/11 00:05:53;;;;;;;;;;;12.20;99.90;;;;;;6115175;23;19965;-88
2022/03/11 00:08:38;;;;;;;;;;;12.20;99.90;;;;;;6139489;23;19932;-89
2022/03/11 00:11:08;;;;;;;;;;;12.30;99.90;;;;;;6140550;23;19924;-90
2022/03/11 00:13:35;;;;;;;;;;;12.20;99.90;;;;;;6139707;23;19921;-89
2022/03/11 00:16:05;;;;;;;;;;;12.40;99.90;;;;;;6140697;23;19921;-88
2022/03/11 00:18:35;;;;;;;;;;;12.30;99.90;;;;;;6140379;23;19921;-88
2022/03/11 00:21:02;;;;;;;;;;;12.30;99.90;;;;;;6139849;23;19940;-88
2022/03/11 00:23:33;;;;;;;;;;;12.50;99.90;;;;;;6139468;23;20095;-88
2022/03/11 00:26:02;;;;;;;;;;;12.20;99.90;;;;;;6139018;23;19931;-90
2022/03/11 00:28:30;;;;;;;;;;;12.60;99.90;;;;;;6135822;23;19948;-90
2022/03/11 00:30:57;;;;;;;;;;;12.30;99.90;;;;;;6140504;23;19921;-88
2022/03/11 00:33:25;;;;;;;;;;;12.10;99.90;;;;;;6140256;23;19920;-88
2022/03/11 00:35:54;;;;;;;;;;;12.30;99.90;;;;;;6139756;23;19936;-89
2022/03/11 00:38:23;;;;;;;;;;;14.30;99.90;;;;;;6139941;23;19928;-89
2022/03/11 00:40:56;;;;;;;;;;;12.20;99.90;;;;;;6114588;23;19924;-89
2022/03/11 00:43:24;;;;;;;;;;;12.50;99.90;;;;;;6140163;23;19940;-88
2022/03/11 00:45:52;;;;;;;;;;;13.00;99.90;;;;;;6140468;23;19921;-88
2022/03/11 00:48:19;;;;;;;;;;;12.40;99.90;;;;;;6138616;23;19928;-89
2022/03/11 00:50:47;;;;;;;;;;;12.10;99.90;;;;;;6140456;23;19921;-88
2022/03/11 00:53:14;;;;;;;;;;;12.20;99.90;;;;;;6113157;23;19928;-88
2022/03/11 00:55:42;;;;;;;;;;;12.30;99.90;;;;;;6139051;23;19935;-88
2022/03/11 00:58:12;;;;;;;;;;;12.20;99.90;;;;;;6139490;23;19927;-88
2022/03/11 01:00:41;;;;;;;;;;;12.20;99.90;;;;;;6139957;23;19928;-88
2022/03/11 01:03:09;;;;;;;;;;;12.20;99.90;;;;;;6139664;23;19924;-90
2022/03/11 01:05:36;;;;;;;;;;;12.20;99.90;;;;;;6139686;23;19960;-91
2022/03/11 01:08:13;;;;;;;;;;;12.20;99.90;;;;;;6139644;23;19988;-91
2022/03/11 01:10:41;;;;;;;;;;;10.80;99.90;;;;;;6140251;23;19925;-87
2022/03/11 01:13:08;;;;;;;;;;;12.40;99.90;;;;;;6141155;23;19953;-86
2022/03/11 01:15:37;;;;;;;;;;;12.10;99.90;;;;;;6141270;23;19928;-86
2022/03/11 01:18:05;;;;;;;;;;;12.00;99.90;;;;;;6141446;23;20350;-87
2022/03/11 01:20:32;;;;;;;;;;;11.90;99.90;;;;;;6141167;23;19921;-87
2022/03/11 01:23:01;;;;;;;;;;;12.00;99.90;;;;;;6141000;23;20267;-89
2022/03/11 01:25:29;;;;;;;;;;;12.00;99.90;;;;;;6140161;23;20329;-88
2022/03/11 01:28:02;;;;;;;;;;;12.20;99.90;;;;;;6139280;23;19968;-89
2022/03/11 01:30:31;;;;;;;;;;;12.10;99.90;;;;;;6139764;23;20285;-90
2022/03/11 01:33:08;;;;;;;;;;;10.50;99.90;;;;;;6140634;23;19928;-89
2022/03/11 01:35:35;;;;;;;;;;;12.30;99.90;;;;;;6139921;23;19928;-88
2022/03/11 01:38:04;;;;;;;;;;;12.30;99.90;;;;;;6113610;23;19921;-89
2022/03/11 01:40:34;;;;;;;;;;;12.10;99.90;;;;;;6140184;23;19927;-91
2022/03/11 01:43:01;;;;;;;;;;;12.10;99.90;;;;;;6139672;23;19921;-89
2022/03/11 01:45:30;;;;;;;;;;;13.20;99.90;;;;;;6140108;23;19921;-88
2022/03/11 01:47:56;;;;;;;;;;;12.60;99.90;;;;;;6140307;23;19945;-89
2022/03/11 01:50:30;;;;;;;;;;;12.10;99.90;;;;;;6139937;23;19976;-90
2022/03/11 01:52:58;;;;;;;;;;;10.00;99.90;;;;;;6140360;23;19996;-87
2022/03/11 01:55:37;;;;;;;;;;;11.80;99.90;;;;;;6139374;23;19921;-88
2022/03/11 01:58:04;;;;;;;;;;;12.00;99.90;;;;;;6140295;23;19925;-90
2022/03/11 02:00:38;;;;;;;;;;;12.00;99.90;;;;;;6139932;23;19928;-89
2022/03/11 02:03:13;;;;;;;;;;;12.00;99.90;;;;;;6137556;23;19964;-89
2022/03/11 02:05:43;;;;;;;;;;;12.00;99.90;;;;;;6141303;23;19921;-88
2022/03/11 02:08:12;;;;;;;;;;;12.20;99.90;;;;;;6140404;23;19925;-89
2022/03/11 02:10:39;;;;;;;;;;;12.00;99.90;;;;;;6140979;23;19921;-88
2022/03/11 02:13:08;;;;;;;;;;;11.90;99.90;;;;;;6141497;23;19925;-88
2022/03/11 02:15:35;;;;;;;;;;;12.10;99.90;;;;;;6140907;23;19973;-89
2022/03/11 02:18:02;;;;;;;;;;;12.20;99.90;;;;;;6141378;23;19991;-90
2022/03/11 02:20:30;;;;;;;;;;;12.10;99.90;;;;;;6141978;23;19921;-88
2022/03/11 02:23:06;;;;;;;;;;;10.20;99.90;;;;;;6141448;23;19936;-88
2022/03/11 02:25:36;;;;;;;;;;;12.50;99.90;;;;;;6141377;23;19921;-89
2022/03/11 02:28:05;;;;;;;;;;;12.10;99.90;;;;;;6141105;23;19923;-89
2022/03/11 02:30:36;;;;;;;;;;;12.00;99.90;;;;;;6141310;23;19943;-89
2022/03/11 02:33:04;;;;;;;;;;;12.20;99.90;;;;;;6141835;23;19921;-88
2022/03/11 02:35:36;;;;;;;;;;;11.90;99.90;;;;;;6141348;23;19952;-90
2022/03/11 02:38:05;;;;;;;;;;;12.90;99.90;;;;;;6141600;23;19921;-90
2022/03/11 02:40:38;;;;;;;;;;;12.50;99.90;;;;;;6136339;23;19921;-89
2022/03/11 02:43:05;;;;;;;;;;;12.40;99.90;;;;;;6141023;23;20248;-88
2022/03/11 02:45:34;;;;;;;;;;;12.30;99.90;;;;;;6141259;23;19921;-88
2022/03/11 02:48:05;;;;;;;;;;;12.00;99.90;;;;;;6140204;23;20213;-89
2022/03/11 02:50:32;;;;;;;;;;;12.10;99.90;;;;;;6141166;23;20000;-90
2022/03/11 02:53:00;;;;;;;;;;;12.30;99.90;;;;;;6140868;23;19948;-90
2022/03/11 02:55:28;;;;;;;;;;;12.20;99.90;;;;;;6140832;23;19947;-90
2022/03/11 02:58:00;;;;;;;;;;;11.90;99.90;;;;;;6141219;23;19921;-89
2022/03/11 03:00:27;;;;;;;;;;;11.90;99.90;;;;;;6140611;23;19921;-89
2022/03/11 03:02:57;;;;;;;;;;;11.90;99.90;;;;;;6140241;23;19921;-90
2022/03/11 03:05:26;;;;;;;;;;;11.40;99.90;;;;;;6139937;23;19928;-90
2022/03/11 03:07:53;;;;;;;;;;;12.50;99.90;;;;;;6139289;23;19923;-89
2022/03/11 03:10:22;;;;;;;;;;;12.40;99.90;;;;;;6140716;23;19925;-87
2022/03/11 03:12:50;;;;;;;;;;;11.80;99.90;;;;;;6138464;23;19920;-89
2022/03/11 03:15:24;;;;;;;;;;;11.80;99.90;;;;;;6139399;23;19921;-88
2022/03/11 03:17:52;;;;;;;;;;;12.10;99.90;;;;;;6139362;23;19965;-91
2022/03/11 03:20:20;;;;;;;;;;;11.90;99.90;;;;;;6136845;23;19988;-90
2022/03/11 03:22:47;;;;;;;;;;;11.90;99.90;;;;;;6140229;23;19944;-88
2022/03/11 03:25:14;;;;;;;;;;;11.90;99.90;;;;;;6140317;23;19927;-89
2022/03/11 03:27:42;;;;;;;;;;;12.20;99.90;;;;;;6140257;23;19932;-90
2022/03/11 03:30:09;;;;;;;;;;;11.90;99.90;;;;;;6114285;23;19945;-89
2022/03/11 03:32:40;;;;;;;;;;;12.10;99.90;;;;;;6138506;23;19921;-87
2022/03/11 03:35:07;;;;;;;;;;;10.80;99.90;;;;;;6139773;23;19922;-88
2022/03/11 03:37:34;;;;;;;;;;;11.90;99.90;;;;;;6140510;23;19925;-90
2022/03/11 03:40:02;;;;;;;;;;;11.90;99.90;;;;;;6140330;23;19925;-88
2022/03/11 03:42:29;;;;;;;;;;;12.20;99.90;;;;;;6140531;23;20288;-89
2022/03/11 03:44:59;;;;;;;;;;;11.90;99.90;;;;;;6140339;23;19925;-91
2022/03/11 03:47:27;;;;;;;;;;;12.00;99.90;;;;;;6140114;23;19921;-89
2022/03/11 03:50:01;;;;;;;;;;;11.70;99.90;;;;;;6139851;23;19921;-88
2022/03/11 03:52:29;;;;;;;;;;;12.10;99.90;;;;;;6140521;23;19921;-89
2022/03/11 03:55:01;;;;;;;;;;;12.70;99.90;;;;;;6140215;23;19925;-89
2022/03/11 03:57:28;;;;;;;;;;;12.00;99.90;;;;;;6114136;23;19921;-88
2022/03/11 03:59:55;;;;;;;;;;;12.20;99.90;;;;;;6140078;23;19969;-88
2022/03/11 04:02:22;;;;;;;;;;;11.80;99.90;;;;;;6140258;23;20337;-90
2022/03/11 04:04:51;;;;;;;;;;;12.00;99.90;;;;;;6138995;23;19921;-89
2022/03/11 04:07:23;;;;;;;;;;;12.30;99.90;;;;;;6140080;23;19928;-88
2022/03/11 04:09:50;;;;;;;;;;;11.90;99.90;;;;;;6140411;23;19921;-88
2022/03/11 04:12:19;;;;;;;;;;;13.00;99.90;;;;;;6140346;23;20293;-89
2022/03/11 04:14:51;;;;;;;;;;;12.00;99.90;;;;;;6139521;23;19947;-89
2022/03/11 04:17:20;;;;;;;;;;;12.20;99.90;;;;;;6138561;23;19928;-87
2022/03/11 04:19:48;;;;;;;;;;;12.10;99.90;;;;;;6139052;23;19928;-90
2022/03/11 04:22:15;;;;;;;;;;;11.80;99.90;;;;;;6138037;23;19931;-86
2022/03/11 04:24:44;;;;;;;;;;;12.20;99.90;;;;;;6138687;23;19936;-89
2022/03/11 04:27:12;;;;;;;;;;;12.00;99.90;;;;;;6138649;23;19921;-89
2022/03/11 04:29:38;;;;;;;;;;;12.00;99.90;;;;;;6137997;23;19960;-87
2022/03/11 04:32:07;;;;;;;;;;;12.00;99.90;;;;;;6137911;23;19959;-88
2022/03/11 04:34:34;;;;;;;;;;;12.50;99.90;;;;;;6137910;23;19928;-87
2022/03/11 04:37:03;;;;;;;;;;;12.20;99.90;;;;;;6138227;23;19921;-90
2022/03/11 04:39:38;;;;;;;;;;;12.00;99.90;;;;;;6138009;23;19928;-88
2022/03/11 04:42:09;;;;;;;;;;;12.00;99.90;;;;;;6137730;23;19925;-86
2022/03/11 04:44:39;;;;;;;;;;;12.00;99.90;;;;;;6139191;23;20309;-87
2022/03/11 04:47:10;;;;;;;;;;;11.80;99.90;;;;;;6138801;23;19936;-88
2022/03/11 04:49:47;;;;;;;;;;;12.20;99.90;;;;;;6138243;23;20347;-87
2022/03/11 04:52:14;;;;;;;;;;;12.10;99.90;;;;;;6138359;23;19931;-87
2022/03/11 04:54:44;;;;;;;;;;;12.00;99.90;;;;;;6139047;23;19955;-88
2022/03/11 04:57:27;;;;;;;;;;;12.00;99.90;;;;;;6139759;23;20285;-88
2022/03/11 04:59:54;;;;;;;;;;;10.00;99.90;;;;;;6139921;23;19925;-87
2022/03/11 05:02:29;;;;;;;;;;;12.50;99.90;;;;;;6140487;23;19920;-88
2022/03/11 05:04:58;;;;;;;;;;;12.00;99.90;;;;;;6139979;23;19932;-87
2022/03/11 05:07:25;;;;;;;;;;;12.50;99.90;;;;;;6140187;23;19968;-88
2022/03/11 05:09:54;;;;;;;;;;;12.10;99.90;;;;;;6139812;23;19928;-88
2022/03/11 05:12:28;;;;;;;;;;;11.90;99.90;;;;;;6139124;23;20255;-88
2022/03/11 05:14:55;;;;;;;;;;;12.00;99.90;;;;;;6138666;23;19973;-88
2022/03/11 05:17:26;;;;;;;;;;;11.90;99.90;;;;;;6138019;23;20007;-89
2022/03/11 05:19:56;;;;;;;;;;;11.20;99.90;;;;;;6137628;23;19920;-88
2022/03/11 05:22:24;;;;;;;;;;;11.90;99.90;;;;;;6112910;23;19975;-88
2022/03/11 05:24:54;;;;;;;;;;;11.70;99.90;;;;;;6113329;23;19921;-88
2022/03/11 05:27:23;;;;;;;;;;;11.90;99.90;;;;;;6138772;23;19958;-89
2022/03/11 05:29:52;;;;;;;;;;;11.90;99.90;;;;;;6139131;23;19921;-88
2022/03/11 05:32:20;;;;;;;;;;;13.60;99.90;;;;;;6138662;23;19920;-88
2022/03/11 05:34:48;;;;;;;;;;;12.30;99.90;;;;;;6054382;23;1956914;-88
2022/03/11 05:37:18;;;;;;;;;;;12.10;99.90;;;;;;6140046;23;20044;-87
2022/03/11 05:39:50;;;;;;;;;;;11.70;99.90;;;;;;6141037;23;19921;-88
2022/03/11 05:42:17;;;;;;;;;;;12.00;99.90;;;;;;6143097;23;19941;-88
2022/03/11 05:44:51;;;;;;;;;;;11.60;99.90;;;;;;6142352;23;19960;-87
2022/03/11 05:47:18;;;;;;;;;;;10.30;99.90;;;;;;6141125;23;19921;-87
2022/03/11 05:49:45;;;;;;;;;;;11.70;99.90;;;;;;6139304;23;19921;-90
2022/03/11 05:52:15;;;;;;;;;;;11.60;99.90;;;;;;6138899;23;19921;-88
2022/03/11 05:54:43;;;;;;;;;;;11.60;99.90;;;;;;6141794;23;19920;-90
2022/03/11 05:57:13;;;;;;;;;;;11.20;99.90;;;;;;6140747;23;19931;-88
2022/03/11 05:59:40;;;;;;;;;;;11.40;99.90;;;;;;6141182;23;19948;-88
2022/03/11 06:02:15;;;;;;;;;;;11.40;99.90;;;;;;6140564;23;19928;-89
2022/03/11 06:04:42;;;;;;;;;;;11.40;99.90;;;;;;6141605;23;20296;-87
2022/03/11 06:07:11;;;;;;;;;;;11.30;99.90;;;;;;6115182;23;19972;-89
2022/03/11 06:09:38;;;;;;;;;;;11.20;99.90;;;;;;6139931;23;19921;-87
2022/03/11 06:12:07;;;;;;;;;;;11.10;99.90;;;;;;6141811;23;20012;-88
2022/03/11 06:14:41;;;;;;;;;;;11.10;99.90;;;;;;6141600;23;19992;-88
2022/03/11 06:17:11;;;;;;;;;;;11.20;99.90;;;;;;6141711;23;19944;-90
2022/03/11 06:19:38;;;;;;;;;;;11.40;99.90;;;;;;6140887;23;20391;-88
2022/03/11 06:22:05;;;;;;;;;;;11.10;99.90;;;;;;6141059;23;19976;-89
2022/03/11 06:24:34;;;;;;;;;;;11.10;99.90;;;;;;6141111;23;19920;-88
2022/03/11 06:27:03;;;;;;;;;;;11.10;99.90;;;;;;6141567;23;19924;-88
2022/03/11 06:29:30;;;;;;;;;;;11.00;99.90;;;;;;6140812;23;19921;-87
2022/03/11 06:32:00;;;;;;;;;;;11.40;99.90;;;;;;6140975;23;19924;-87
2022/03/11 06:34:31;;;;;;;;;;;11.20;99.90;;;;;;6139590;23;19992;-87
2022/03/11 06:36:58;;;;;;;;;;;11.20;99.90;;;;;;6140150;23;19921;-88
2022/03/11 06:39:29;;;;;;;;;;;11.00;99.90;;;;;;6140442;23;20344;-89
2022/03/11 06:41:57;;;;;;;;;;;11.20;99.90;;;;;;6138901;23;20311;-88
2022/03/11 06:44:28;;;;;;;;;;;10.70;99.90;;;;;;6141691;23;19928;-88
2022/03/11 06:46:57;;;;;;;;;;;11.30;99.90;;;;;;6140858;23;20263;-87
2022/03/11 06:49:28;;;;;;;;;;;11.00;99.90;;;;;;6139531;23;19928;-87
2022/03/11 06:51:57;;;;;;;;;;;11.00;99.90;;;;;;6138097;23;20011;-89
2022/03/11 06:54:24;;;;;;;;;;;11.00;99.90;;;;;;6139461;23;19921;-91
2022/03/11 06:56:53;;;;;;;;;;;11.00;99.90;;;;;;6138550;23;19925;-87
2022/03/11 06:59:20;;;;;;;;;;;12.70;99.90;;;;;;6140676;23;19925;-89
2022/03/11 07:01:48;;;;;;;;;;;10.90;99.90;;;;;;6139936;23;19921;-88
2022/03/11 07:04:17;;;;;;;;;;;10.90;99.90;;;;;;6139319;23;19921;-89
2022/03/11 07:06:44;;;;;;;;;;;11.30;99.90;;;;;;6139026;23;19941;-87
2022/03/11 07:09:20;;;;;;;;;;;11.20;99.90;;;;;;6139702;23;19928;-89
2022/03/11 07:11:51;;;;;;;;;;;11.00;99.90;;;;;;6138728;23;19948;-90
2022/03/11 07:14:18;;;;;;;;;;;11.20;99.90;;;;;;6135901;23;19921;-88
2022/03/11 07:16:45;;;;;;;;;;;11.70;99.90;;;;;;6135729;23;20285;-87
2022/03/11 07:19:14;;;;;;;;;;;9.80;99.90;;;;;;6136326;23;19968;-91
2022/03/11 07:21:47;;;;;;;;;;;11.20;99.90;;;;;;6138762;23;19924;-87
2022/03/11 07:24:17;;;;;;;;;;;11.20;99.90;;;;;;6137946;23;19945;-87
2022/03/11 07:26:47;;;;;;;;;;;11.20;99.90;;;;;;6139866;23;19921;-87
2022/03/11 07:29:16;;;;;;;;;;;11.60;99.90;;;;;;6138536;23;19927;-88
2022/03/11 07:31:43;;;;;;;;;;;11.40;99.90;;;;;;6133387;23;19921;-90
2022/03/11 07:34:12;;;;;;;;;;;11.30;99.90;;;;;;6134876;23;19937;-89
2022/03/11 07:36:41;;;;;;;;;;;11.50;99.90;;;;;;6133274;23;19976;-88
2022/03/11 07:39:09;;;;;;;;;;;11.30;99.90;;;;;;6132783;23;19921;-89
2022/03/11 07:41:48;;;;;;;;;;;11.40;99.90;;;;;;6136607;23;20459;-88
2022/03/11 07:44:15;;;;;;;;;;;11.50;99.90;;;;;;6135121;23;19940;-89
2022/03/11 07:46:44;;;;;;;;;;;11.70;99.90;;;;;;6133935;23;19927;-89
2022/03/11 07:49:23;;;;;;;;;;;11.40;99.90;;;;;;6135384;23;19936;-91
2022/03/11 07:51:53;;;;;;;;;;;11.60;99.90;;;;;;6137168;23;19943;-87
2022/03/11 07:54:24;;;;;;;;;;;12.00;99.90;;;;;;6136515;23;19968;-89
2022/03/11 07:56:52;;;;;;;;;;;11.60;99.90;;;;;;6134553;23;19941;-88
2022/03/11 07:59:20;;;;;;;;;;;11.60;99.90;;;;;;6135537;23;19976;-86
2022/03/11 08:01:49;;;;;;;;;;;11.90;99.90;;;;;;6137647;23;19961;-88
2022/03/11 08:04:17;;;;;;;;;;;11.50;99.90;;;;;;6135625;23;19927;-89
2022/03/11 08:06:46;;;;;;;;;;;12.00;99.90;;;;;;6134077;23;20344;-90
2022/03/11 08:09:39;;;;;;;;;;;11.40;99.90;;;;;;6136525;23;19929;-92
2022/03/11 08:12:08;;;;;;;;;;;11.90;99.90;;;;;;6134590;23;19944;-90
2022/03/11 08:14:35;;;;;;;;;;;11.60;99.90;;;;;;6133172;23;19975;-90
2022/03/11 08:17:02;;;;;;;;;;;11.90;99.90;;;;;;6137018;23;19931;-89
2022/03/11 08:19:29;;;;;;;;;;;12.00;99.90;;;;;;6135269;23;19984;-88
2022/03/11 08:21:56;;;;;;;;;;;11.70;99.90;;;;;;6135238;23;19921;-88
2022/03/11 08:24:23;;;;;;;;;;;12.00;99.90;;;;;;6137013;23;20332;-88
2022/03/11 08:26:50;;;;;;;;;;;11.80;99.90;;;;;;6134266;23;19979;-88
2022/03/11 08:29:20;;;;;;;;;;;12.10;99.90;;;;;;6135230;23;20014;-88
2022/03/11 08:31:47;;;;;;;;;;;11.70;99.90;;;;;;6134846;23;19921;-89
2022/03/11 08:34:17;;;;;;;;;;;11.90;99.90;;;;;;6135305;23;19921;-89
2022/03/11 08:36:44;;;;;;;;;;;11.80;99.90;;;;;;6131316;23;19921;-85
2022/03/11 08:39:14;;;;;;;;;;;11.70;99.90;;;;;;6129994;23;19928;-89
2022/03/11 08:41:41;;;;;;;;;;;12.40;99.90;;;;;;6128911;23;19925;-90
2022/03/11 08:44:27;;;;;;;;;;;12.00;99.90;;;;;;6133894;23;19989;-90
2022/03/11 08:46:56;;;;;;;;;;;12.30;99.90;;;;;;6135663;23;19921;-89
2022/03/11 08:49:23;;;;;;;;;;;13.00;99.90;;;;;;6137785;23;19925;-89
2022/03/11 08:51:51;;;;;;;;;;;12.40;99.90;;;;;;6135969;23;19921;-87
2022/03/11 08:54:19;;;;;;;;;;;11.30;99.90;;;;;;6137380;23;19921;-88
2022/03/11 08:56:46;;;;;;;;;;;12.50;99.90;;;;;;6133149;23;20240;-89
2022/03/11 08:59:14;;;;;;;;;;;12.20;99.90;;;;;;6132251;23;19921;-88
2022/03/11 09:01:41;;;;;;;;;;;12.50;99.90;;;;;;6130741;23;19928;-90
2022/03/11 09:04:19;;;;;;;;;;;12.20;99.90;;;;;;6134520;23;19932;-90
2022/03/11 09:06:46;;;;;;;;;;;13.30;99.90;;;;;;6135370;23;19921;-90
2022/03/11 09:09:13;;;;;;;;;;;12.20;99.90;;;;;;6128505;23;19948;-91
2022/03/11 09:11:40;;;;;;;;;;;12.30;99.90;;;;;;6133485;23;19932;-88
2022/03/11 09:14:08;;;;;;;;;;;12.40;99.90;;;;;;6129294;23;20257;-88
2022/03/11 09:16:34;;;;;;;;;;;13.40;99.90;;;;;;6132409;23;20020;-87
2022/03/11 09:19:01;;;;;;;;;;;12.30;99.90;;;;;;6136178;23;19944;-89
2022/03/11 09:21:31;;;;;;;;;;;12.30;99.90;;;;;;6127616;23;20328;-88
2022/03/11 09:23:58;;;;;;;;;;;12.30;99.90;;;;;;6128975;23;19924;-89
2022/03/11 09:26:25;;;;;;;;;;;12.20;99.90;;;;;;6129186;23;19968;-88
2022/03/11 09:28:52;;;;;;;;;;;12.20;99.90;;;;;;6129191;23;20348;-87
2022/03/11 09:31:20;;;;;;;;;;;12.20;99.90;;;;;;6129681;23;19979;-88
2022/03/11 09:33:46;;;;;;;;;;;12.30;99.90;;;;;;6127102;23;19925;-88
2022/03/11 09:36:13;;;;;;;;;;;14.80;99.90;;;;;;6127667;23;19935;-90
2022/03/11 09:38:42;;;;;;;;;;;12.60;99.90;;;;;;6125414;23;19920;-88
2022/03/11 09:41:09;;;;;;;;;;;12.70;99.90;;;;;;6128112;23;20296;-88
2022/03/11 09:43:38;;;;;;;;;;;12.80;99.90;;;;;;6122146;23;20336;-89
2022/03/11 09:46:05;;;;;;;;;;;12.80;99.90;;;;;;6129172;23;19929;-90
2022/03/11 09:48:34;;;;;;;;;;;12.80;99.90;;;;;;6126466;23;20236;-91
2022/03/11 09:51:01;;;;;;;;;;;12.90;99.90;;;;;;6127386;23;19921;-87
2022/03/11 09:53:28;;;;;;;;;;;12.90;99.90;;;;;;6128085;23;19991;-85
2022/03/11 09:55:56;;;;;;;;;;;12.90;99.90;;;;;;6128784;23;19967;-87
2022/03/11 09:58:23;;;;;;;;;;;13.10;99.90;;;;;;6126409;23;19931;-89
2022/03/11 10:00:52;;;;;;;;;;;13.30;99.90;;;;;;6127197;23;19928;-88
2022/03/11 10:03:19;;;;;;;;;;;13.50;99.90;;;;;;6127044;23;20244;-90
2022/03/11 10:05:51;;;;;;;;;;;13.20;99.90;;;;;;6127360;23;19921;-89
2022/03/11 10:08:30;;;;;;;;;;;13.20;99.90;;;;;;6127547;23;19972;-91
2022/03/11 10:11:02;;;;;;;;;;;13.00;99.90;;;;;;6128017;23;19920;-87
2022/03/11 10:13:37;;;;;;;;;;;13.60;99.90;;;;;;6127631;23;19928;-88
2022/03/11 10:16:16;;;;;;;;;;;13.30;99.90;;;;;;6127976;23;19964;-90
2022/03/11 10:18:46;;;;;;;;;;;13.50;99.90;;;;;;6128436;23;19921;-88
2022/03/11 10:21:13;;;;;;;;;;;13.10;99.90;;;;;;6125088;23;19924;-88
2022/03/11 10:23:48;;;;;;;;;;;12.80;99.90;;;;;;6127496;23;19980;-88
2022/03/11 10:26:30;;;;;;;;;;;12.90;99.90;;;;;;6129786;23;19921;-90
2022/03/11 10:29:00;;;;;;;;;;;13.00;99.90;;;;;;6128720;23;19940;-88
2022/03/11 10:31:30;;;;;;;;;;;10.80;99.90;;;;;;6131382;23;20030;-89
2022/03/11 10:34:13;;;;;;;;;;;13.00;99.90;;;;;;6129593;23;20154;-88
2022/03/11 10:36:45;;;;;;;;;;;13.00;99.90;;;;;;6130090;23;19921;-88
2022/03/11 10:39:14;;;;;;;;;;;13.30;99.90;;;;;;6129022;23;19965;-87
2022/03/11 10:41:46;;;;;;;;;;;13.10;99.90;;;;;;6129319;23;19921;-88
2022/03/11 10:44:12;;;;;;;;;;;13.20;99.90;;;;;;6129538;23;19968;-87
2022/03/11 10:46:40;;;;;;;;;;;13.00;99.90;;;;;;6127240;23;19928;-89
2022/03/11 10:49:07;;;;;;;;;;;13.50;99.90;;;;;;6129317;23;19992;-88
2022/03/11 10:51:34;;;;;;;;;;;13.50;99.90;;;;;;6126492;23;19921;-87
2022/03/11 10:54:02;;;;;;;;;;;13.20;99.90;;;;;;6123929;23;19932;-88
2022/03/11 10:56:34;;;;;;;;;;;13.40;99.90;;;;;;6126253;23;19941;-87
2022/03/11 10:59:05;;;;;;;;;;;13.30;99.90;;;;;;6127012;23;19956;-85
2022/03/11 11:01:38;;;;;;;;;;;13.20;99.90;;;;;;6127376;23;19921;-85
2022/03/11 11:04:10;;;;;;;;;;;13.40;99.90;;;;;;6127248;23;19929;-89
2022/03/11 11:06:41;;;;;;;;;;;13.20;99.90;;;;;;6115278;23;19925;-88
2022/03/11 11:09:09;;;;;;;;;;;12.80;99.90;;;;;;6125569;23;19925;-88
2022/03/11 11:11:36;;;;;;;;;;;13.20;99.90;;;;;;6130474;23;20006;-88
2022/03/11 11:14:06;;;;;;;;;;;13.60;99.90;;;;;;6129340;23;20009;-88
2022/03/11 11:16:39;;;;;;;;;;;13.00;99.90;;;;;;6129762;23;20252;-88
2022/03/11 11:19:19;;;;;;;;;;;;;;;;;;;;;
2022/03/11 11:21:56;;;;;;;;;;;13.40;99.90;;;;;;6128726;23;19960;-90
2022/03/11 11:24:29;;;;;;;;;;;13.40;99.90;;;;;;6122443;23;20163;-89
2022/03/11 11:27:07;;;;;;;;;;;13.20;99.90;;;;;;6129577;23;19952;-88
2022/03/11 11:29:42;;;;;;;;;;;12.80;99.90;;;;;;6128218;23;19925;-89
2022/03/11 11:32:12;;;;;;;;;;;13.40;99.90;;;;;;6133153;23;20331;-86
2022/03/11 11:34:39;;;;;;;;;;;13.80;99.90;;;;;;6132786;23;19921;-88
2022/03/11 11:37:14;;;;;;;;;;;11.30;99.90;;;;;;6131761;23;20334;-87
2022/03/11 11:39:51;;;;;;;;;;;13.60;99.90;;;;;;6131634;23;19929;-88
2022/03/11 11:42:20;;;;;;;;;;;13.30;99.90;;;;;;6130880;23;20276;-87
2022/03/11 11:44:52;;;;;;;;;;;13.00;99.90;;;;;;6130379;23;19925;-87
2022/03/11 11:47:26;;;;;;;;;;;13.50;99.90;;;;;;6129657;23;20995;-86
2022/03/11 11:49:55;;;;;;;;;;;13.40;99.90;;;;;;6121210;23;19921;-85
2022/03/11 11:52:29;;;;;;;;;;;13.50;99.90;;;;;;6127786;23;19921;-87
2022/03/11 11:55:11;;;;;;;;;;;13.60;99.90;;;;;;6129735;23;20431;-89
2022/03/11 11:57:38;;;;;;;;;;;13.70;99.90;;;;;;6130846;23;20265;-89
2022/03/11 12:00:13;;;;;;;;;;;13.70;99.90;;;;;;6131400;23;20012;-91
2022/03/11 12:02:48;;;;;;;;;;;14.00;99.90;;;;;;6129355;23;19968;-90
2022/03/11 12:05:36;;;;;;;;;;;13.90;99.90;;;;;;6132845;23;19965;-88
2022/03/11 12:08:02;;;;;;;;;;;13.60;99.90;;;;;;6129424;23;19921;-90
2022/03/11 12:10:31;;;;;;;;;;;13.80;99.90;;;;;;6128383;23;19928;-89
2022/03/11 12:13:00;;;;;;;;;;;13.70;99.90;;;;;;6131699;23;19960;-88
2022/03/11 12:15:27;;;;;;;;;;;13.50;99.90;;;;;;6129856;23;19965;-86
2022/03/11 12:17:59;;;;;;;;;;;13.50;99.90;;;;;;6129643;23;19945;-86
2022/03/11 12:20:27;;;;;;;;;;;13.50;99.90;;;;;;6126776;23;19921;-88
2022/03/11 12:22:57;;;;;;;;;;;13.60;99.90;;;;;;6127611;23;19928;-88
2022/03/11 12:25:35;;;;;;;;;;;13.70;99.90;;;;;;6128622;23;19921;-88
2022/03/11 12:28:12;;;;;;;;;;;11.80;99.90;;;;;;6127283;23;19928;-90
2022/03/11 12:30:58;;;;;;;;;;;15.20;99.90;;;;;;6127742;23;19932;-88
2022/03/11 12:33:32;;;;;;;;;;;14.30;99.90;;;;;;6126365;23;19996;-88
2022/03/11 12:35:59;;;;;;;;;;;14.00;99.90;;;;;;6128758;23;19955;-88
2022/03/11 12:38:27;;;;;;;;;;;14.10;99.90;;;;;;6127414;23;20358;-88
2022/03/11 12:40:55;;;;;;;;;;;14.20;99.90;;;;;;6126421;23;19996;-87
2022/03/11 12:43:26;;;;;;;;;;;14.30;99.90;;;;;;6127923;23;19921;-90
2022/03/11 12:45:54;;;;;;;;;;;14.30;99.90;;;;;;6126982;23;19921;-89
2022/03/11 12:48:22;;;;;;;;;;;14.70;99.90;;;;;;6126180;23;20508;-89
2022/03/11 12:50:51;;;;;;;;;;;14.70;99.90;;;;;;6110009;23;20011;-89
2022/03/11 12:53:20;;;;;;;;;;;14.60;99.90;;;;;;6125467;23;19921;-88
2022/03/11 12:55:56;;;;;;;;;;;14.40;99.90;;;;;;6128793;23;20090;-89
2022/03/11 12:58:25;;;;;;;;;;;14.40;99.90;;;;;;6130818;23;19921;-86
2022/03/11 13:00:53;;;;;;;;;;;14.50;99.90;;;;;;6129087;23;19921;-87
2022/03/11 13:03:25;;;;;;;;;;;14.80;99.90;;;;;;6129826;23;19948;-86
2022/03/11 13:05:54;;;;;;;;;;;14.40;99.90;;;;;;6127904;23;19975;-85
2022/03/11 13:08:21;;;;;;;;;;;14.80;99.90;;;;;;6129628;23;19952;-91
2022/03/11 13:10:49;;;;;;;;;;;14.40;99.90;;;;;;6130790;23;19921;-90
2022/03/11 13:13:54;;;;;;;;;;;;;;;;;;;;;
2022/03/11 13:16:34;;;;;;;;;;;12.50;99.90;;;;;;6128509;23;20268;-91
2022/03/11 13:19:08;;;;;;;;;;;15.60;99.90;;;;;;6101157;23;19921;-90
2022/03/11 13:21:42;;;;;;;;;;;13.90;99.90;;;;;;6127465;23;19925;-88
2022/03/11 13:24:10;;;;;;;;;;;14.20;99.90;;;;;;6128632;23;19927;-87
2022/03/11 13:26:42;;;;;;;;;;;14.30;99.90;;;;;;6126709;23;20336;-88
2022/03/11 13:29:11;;;;;;;;;;;14.30;99.90;;;;;;6127058;23;20247;-87
2022/03/11 13:31:40;;;;;;;;;;;14.10;99.90;;;;;;6126602;23;19972;-87
2022/03/11 13:34:08;;;;;;;;;;;15.00;99.90;;;;;;6127260;23;19921;-88
2022/03/11 13:36:39;;;;;;;;;;;14.20;99.90;;;;;;6125854;23;20247;-88
2022/03/11 13:39:08;;;;;;;;;;;14.50;99.90;;;;;;6127450;23;20003;-89
2022/03/11 13:41:37;;;;;;;;;;;14.30;99.90;;;;;;6127702;23;19921;-89
2022/03/11 13:44:12;;;;;;;;;;;14.20;99.90;;;;;;6128242;23;19927;-88
2022/03/11 13:46:40;;;;;;;;;;;14.30;99.90;;;;;;6127918;23;20264;-88
2022/03/11 13:49:10;;;;;;;;;;;14.30;99.90;;;;;;6125874;23;19921;-89
2022/03/11 13:51:45;;;;;;;;;;;14.20;99.90;;;;;;6126705;23;20336;-87
2022/03/11 13:54:31;;;;;;;;;;;14.10;99.90;;;;;;6127555;23;19921;-89
2022/03/11 13:56:59;;;;;;;;;;;14.40;99.90;;;;;;6127751;23;19972;-88
2022/03/11 13:59:30;;;;;;;;;;;14.10;99.90;;;;;;6126454;23;19925;-89
2022/03/11 14:02:09;;;;;;;;;;;13.90;99.90;;;;;;6128510;23;19921;-88
2022/03/11 14:04:39;;;;;;;;;;;14.10;99.90;;;;;;6130133;23;19980;-87
2022/03/11 14:07:10;;;;;;;;;;;14.40;99.90;;;;;;6131338;23;19925;-89
2022/03/11 14:09:55;;;;;;;;;;;14.10;99.90;;;;;;6131676;23;19921;-89
2022/03/11 14:12:24;;;;;;;;;;;14.10;99.90;;;;;;6129256;23;19920;-88
2022/03/11 14:14:51;;;;;;;;;;;14.20;99.90;;;;;;6131626;23;19943;-86
2022/03/11 14:17:30;;;;;;;;;;;14.00;99.90;;;;;;6133277;23;20344;-87
2022/03/11 14:19:57;;;;;;;;;;;13.90;99.90;;;;;;6128760;23;19941;-86
2022/03/11 14:22:25;;;;;;;;;;;14.70;99.90;;;;;;6128447;23;20003;-87
2022/03/11 14:24:54;;;;;;;;;;;13.90;99.90;;;;;;6129797;23;19921;-87
2022/03/11 14:27:22;;;;;;;;;;;14.00;99.90;;;;;;6129578;23;19925;-87
2022/03/11 14:29:50;;;;;;;;;;;13.90;99.90;;;;;;6130136;23;19921;-87
2022/03/11 14:32:19;;;;;;;;;;;14.10;99.90;;;;;;6128716;23;19995;-85
2022/03/11 14:34:47;;;;;;;;;;;13.80;99.90;;;;;;6128813;23;19924;-86